Skip Navigation Links Skip Navigation Links

Current Weather

Oakland County International, Pontiac, Mich.

For information only: do not use for flight planning or navigation.
Latest weather
Observation time Friday, May 29, 2020 6:53 PM EDT
Local time Friday, May 29, 2020 7:52 PM EDT
Flight conditions Visual Meteorological Conditions
Winds
Wind direction West-Southwest (250°)
Wind speed 9 mph
Visibility 10 mi.
Sky condition
Ceiling unlimited
Cloud layer few clouds 3,400 ft.
Cloud layer scattered clouds 10,000 ft.
Cloud layer scattered clouds 20,000 ft.
Temperature 68°F
Dewpoint 51°F
Altimeter 29.91 in.Hg
Derived measurements
Relative humidity 55%
Density altitude 1759 ft.
Sea-level pressure 29.90 in.Hg
Remarks
Automated weather observing station with precipitation discriminator.
METAR KPTK 292253Z 25008KT 10SM FEW034 SCT100 SCT200 20/11 A2991 RMK AO2 SLP124 T02000106

Settings

Location code

InnerDrive.Weather 4.0.6770.0 Release CLR 4.0.30319.42000
Copyright ©2018 Inner Drive Technology. All rights reserved. Portions Copyright ©1986-2018 David Braverman.

Find weather

Site navigation


Skip Navigation Links

Place info

Page info

PayPal - The safer, easier way to pay online!

Return home.

Copyright ©2020 Inner Drive Technology. Purveyors of fine, hand-crafted computer software. Page printed 2020-05-29T23:52:04 UTC.